Ana Sayfa
METAR-TAF:

METAR-TAF

Havaalanları :

Amasya Merzifon Havalimanı

Merzifon, Türkiye

Enlem: 40-51N, Boylam: 035-35E, yükseklik: 545 m

Güncel hava durumu gözlemi

Rapor saat 04:20 UTC de 35 dakika önce yapıldı.
Sakin rüzgar
Sıcaklık 17°C
Nem 63%
Basınç 1013 hPa
Görüş mesafesi 10 km veya daha fazla
1500 m altında bulut yok ve kümülonimbus yok

METAR: LTAP 150420Z 00000KT CAVOK 17/10 Q1013 NOSIG

Saat: 07:55 (04:55 UTC)

Tahmin

Rapor saat 22:40 UTC de 6 saat ve 15 dakika önce yapıldı.
Ayın 15'si saat 00 UTC'den ayın 15'si saat 24 UTC'ye kadar geçerli Tahmin
Rüzgar değişken yönden 2 kt
Görüş mesafesi 10 km veya daha fazla
1500 m altında bulut yok ve kümülonimbus yok
Dönüşüyor
ayın 15'si saat 07 UTC'den ayın 15'si saat 10 UTC'ye kadar
Rüzgar kuzey/kuzeydoğudan 12 kt
4000 ft yükseklikte az bulutlu

TAF: LTAP 142240Z 1500/1524 VRB02KT CAVOK BECMG 1507/1510 02012KT FEW040

4.000'den fazla havaalanı için hava durumu gözlemleri ve tahminleri (METAR ve TAF raporları).

Kullanılabilir istasyonlar harita üzerinde sarı ve kırmızı noktalarla gösterilir.

İstasyonun adını görmek için fareyi noktanın üzerinde gezdirin.

Sonrasında hava gözlem ve tahminlerini görmek için tıklayın.

Haritayı değiştirmek için: yaklaştırmak için siyah artı işaretli yeşil düğmeye ve uzaklaştırmak için de eksi işaretli düğmeye hızla tıklayın; bitişik haritalar için yeşil okları kullanın.


METAR-TAF: